Time;durP1;ratioP1;P1;durP2;ratioP2;P2;SDS_P1;SDS_P2;PMS_P1;PMS_P2;Temp;Humidity;BMP_temperature;BMP_pressure;BME280_temperature;BME280_humidity;BME280_pressure;Samples;Min_cycle;Max_cycle;Signal;HPM_P1;HPM_P2
2022/11/30 00:00:30;;;;;;;23.50;16.67;;;8.50;99.90;;;;;;10430706;28;20230;-74
2022/11/30 00:05:31;;;;;;;24.20;16.80;;;8.40;99.90;;;;;;10438608;28;20226;-75
2022/11/30 00:10:32;;;;;;;24.30;17.10;;;8.40;99.90;;;;;;10437478;28;20211;-74
2022/11/30 00:15:33;;;;;;;23.10;15.80;;;8.40;99.90;;;;;;10430979;28;20207;-74
2022/11/30 00:20:33;;;;;;;20.63;15.93;;;8.40;99.90;;;;;;10440725;28;20222;-74
2022/11/30 00:25:34;;;;;;;26.27;18.23;;;8.50;99.90;;;;;;10444441;28;20578;-75
2022/11/30 00:30:35;;;;;;;32.17;21.30;;;8.50;99.90;;;;;;10423062;28;20222;-76
2022/11/30 00:35:35;;;;;;;35.70;21.40;;;8.50;99.90;;;;;;10430998;28;20226;-75
2022/11/30 00:40:36;;;;;;;27.10;19.47;;;8.50;99.90;;;;;;10428615;28;20782;-75
2022/11/30 00:45:36;;;;;;;31.33;20.50;;;8.40;99.90;;;;;;10437333;28;20292;-75
2022/11/30 00:50:37;;;;;;;23.30;17.90;;;8.40;99.90;;;;;;10416256;28;20802;-77
2022/11/30 00:55:38;;;;;;;27.43;19.70;;;8.40;99.90;;;;;;10438460;28;20305;-76
2022/11/30 01:00:39;;;;;;;26.93;17.47;;;8.40;99.90;;;;;;10433841;28;20272;-76
2022/11/30 01:05:43;;;;;;;29.30;19.13;;;8.40;99.90;;;;;;10429368;28;20231;-77
2022/11/30 01:10:52;;;;;;;24.90;17.17;;;8.50;99.90;;;;;;10426639;28;20244;-76
2022/11/30 01:15:52;;;;;;;27.10;18.60;;;8.50;99.90;;;;;;10446060;28;20276;-75
2022/11/30 01:20:54;;;;;;;24.37;18.10;;;8.50;99.90;;;;;;10443023;28;20749;-75
2022/11/30 01:25:54;;;;;;;27.60;18.27;;;8.50;99.90;;;;;;10442456;28;20720;-76
2022/11/30 01:31:06;;;;;;;23.27;17.70;;;8.50;99.90;;;;;;10450872;28;20234;-75
2022/11/30 01:36:15;;;;;;;23.47;17.03;;;8.50;99.90;;;;;;10438074;28;20906;-74
2022/11/30 01:41:22;;;;;;;23.67;17.37;;;8.50;99.90;;;;;;10436527;28;20709;-75
2022/11/30 01:46:45;;;;;;;24.90;17.73;;;8.50;99.90;;;;;;10445809;28;20230;-75
2022/11/30 01:51:50;;;;;;;25.07;18.23;;;8.50;99.90;;;;;;10434443;28;20338;-77
2022/11/30 01:56:58;;;;;;;26.03;19.23;;;8.50;99.90;;;;;;10439510;28;20318;-75
2022/11/30 02:01:58;;;;;;;24.07;17.63;;;8.50;99.90;;;;;;10456723;28;20267;-78
2022/11/30 02:07:02;;;;;;;21.53;16.90;;;8.50;99.90;;;;;;10441959;28;20651;-78
2022/11/30 02:12:04;;;;;;;28.03;18.77;;;8.60;99.90;;;;;;10436623;28;20717;-77
2022/11/30 02:17:18;;;;;;;24.47;19.13;;;8.50;99.90;;;;;;10421551;28;20226;-77
2022/11/30 02:22:27;;;;;;;24.43;18.90;;;8.50;99.90;;;;;;10442460;28;20748;-76
2022/11/30 02:27:43;;;;;;;28.40;19.03;;;8.50;99.90;;;;;;10439879;28;20744;-76
2022/11/30 02:32:57;;;;;;;27.40;19.53;;;8.40;99.90;;;;;;10427467;28;20258;-75
2022/11/30 02:37:59;;;;;;;24.83;18.80;;;8.40;99.90;;;;;;10427682;28;20230;-75
2022/11/30 02:43:03;;;;;;;23.67;17.70;;;8.30;99.90;;;;;;10437983;28;20220;-75
2022/11/30 02:48:08;;;;;;;27.30;18.00;;;8.30;99.90;;;;;;10435925;28;20323;-77
2022/11/30 02:53:09;;;;;;;25.37;16.87;;;8.30;99.90;;;;;;10453421;28;20238;-79
2022/11/30 02:58:14;;;;;;;25.17;16.83;;;8.20;99.90;;;;;;10436868;28;20220;-77
2022/11/30 03:03:15;;;;;;;24.23;16.17;;;8.20;99.90;;;;;;10442922;28;20845;-76
2022/11/30 03:08:15;;;;;;;20.80;14.57;;;8.30;99.90;;;;;;10442697;28;20232;-78
2022/11/30 03:13:19;;;;;;;24.83;16.23;;;8.30;99.90;;;;;;10442065;28;20328;-78
2022/11/30 03:18:20;;;;;;;22.70;16.13;;;8.30;99.90;;;;;;10443459;28;20307;-75
2022/11/30 03:23:20;;;;;;;22.27;15.67;;;8.30;99.90;;;;;;10429830;28;20314;-76
2022/11/30 03:28:21;;;;;;;23.90;16.10;;;8.30;99.90;;;;;;10435007;28;20242;-78
2022/11/30 03:33:23;;;;;;;24.03;18.00;;;8.30;99.90;;;;;;10445434;28;20591;-80
2022/11/30 03:38:24;;;;;;;26.53;17.93;;;8.30;99.90;;;;;;10438109;28;20262;-77
2022/11/30 03:43:24;;;;;;;26.70;17.93;;;8.30;99.90;;;;;;10420678;28;20961;-79
2022/11/30 03:48:25;;;;;;;24.77;18.03;;;8.20;99.90;;;;;;10462013;28;20230;-79
2022/11/30 03:53:27;;;;;;;21.23;15.70;;;8.30;99.90;;;;;;10422611;28;20240;-75
2022/11/30 03:58:28;;;;;;;23.23;16.93;;;8.20;99.90;;;;;;10432104;28;20259;-75
2022/11/30 04:03:30;;;;;;;21.40;16.80;;;8.30;99.90;;;;;;10434359;28;20234;-74
2022/11/30 04:08:31;;;;;;;18.03;15.47;;;8.30;99.90;;;;;;10421915;28;20306;-75
2022/11/30 04:13:33;;;;;;;24.20;15.80;;;8.30;99.90;;;;;;10430934;28;20693;-74
2022/11/30 04:18:38;;;;;;;19.43;15.23;;;8.40;99.90;;;;;;10430002;28;20226;-73
2022/11/30 04:23:39;;;;;;;23.30;16.50;;;8.40;99.90;;;;;;10432274;28;20221;-73
2022/11/30 04:28:40;;;;;;;25.63;17.00;;;8.40;99.90;;;;;;10441442;28;20223;-74
2022/11/30 04:33:40;;;;;;;25.87;17.00;;;8.40;99.90;;;;;;10434800;28;20220;-74
2022/11/30 04:38:43;;;;;;;24.77;16.63;;;8.40;99.90;;;;;;10448534;28;20214;-79
2022/11/30 04:43:47;;;;;;;25.27;15.53;;;8.30;99.90;;;;;;10447261;28;20309;-80
2022/11/30 04:48:48;;;;;;;29.80;17.00;;;8.30;99.90;;;;;;10453477;28;20225;-73
2022/11/30 04:53:48;;;;;;;29.23;16.93;;;8.20;99.90;;;;;;10444076;28;20291;-76
2022/11/30 04:58:49;;;;;;;32.13;16.23;;;8.20;99.90;;;;;;10447978;28;20219;-76
2022/11/30 05:03:49;;;;;;;32.20;18.93;;;8.20;99.90;;;;;;10438020;28;20220;-76
2022/11/30 05:08:50;;;;;;;40.53;19.27;;;8.10;99.90;;;;;;10448035;28;20216;-75
2022/11/30 05:13:51;;;;;;;45.50;20.70;;;8.00;99.90;;;;;;10445646;28;20274;-75
2022/11/30 05:18:51;;;;;;;34.67;19.70;;;8.00;99.90;;;;;;10443642;28;20340;-74
2022/11/30 05:23:52;;;;;;;39.27;25.60;;;8.10;99.90;;;;;;10446392;28;20424;-75
2022/11/30 05:28:53;;;;;;;39.53;20.33;;;8.10;99.90;;;;;;10430803;28;20275;-76
2022/11/30 05:33:53;;;;;;;38.90;20.90;;;8.10;99.90;;;;;;10439708;28;20225;-74
2022/11/30 05:38:54;;;;;;;32.00;18.00;;;8.10;99.90;;;;;;10441895;28;20225;-73
2022/11/30 05:43:55;;;;;;;35.27;19.90;;;8.10;99.90;;;;;;10449501;28;20207;-74
2022/11/30 05:48:56;;;;;;;35.37;19.53;;;8.10;99.90;;;;;;10432986;28;20245;-75
2022/11/30 05:53:57;;;;;;;33.30;18.50;;;8.10;99.90;;;;;;10427399;28;20259;-75
2022/11/30 05:58:58;;;;;;;38.07;20.00;;;8.10;99.90;;;;;;10427827;28;20222;-74
2022/11/30 06:03:58;;;;;;;34.50;19.53;;;8.10;99.90;;;;;;10435195;28;20236;-74
2022/11/30 06:08:59;;;;;;;32.93;18.87;;;8.10;99.90;;;;;;10435544;28;20239;-75
2022/11/30 06:14:02;;;;;;;29.90;17.37;;;8.20;99.90;;;;;;10432344;28;20313;-75
2022/11/30 06:19:03;;;;;;;32.50;18.97;;;8.20;99.90;;;;;;10431767;28;20284;-76
2022/11/30 06:24:07;;;;;;;37.17;19.83;;;8.20;99.90;;;;;;10436706;28;20286;-74
2022/11/30 06:29:09;;;;;;;37.90;18.97;;;8.20;99.90;;;;;;10431813;28;20319;-75
2022/11/30 06:34:09;;;;;;;37.57;19.30;;;8.20;99.90;;;;;;10457528;28;20640;-74
2022/11/30 06:39:11;;;;;;;35.97;20.13;;;8.20;99.90;;;;;;10448604;28;20222;-74
2022/11/30 06:44:11;;;;;;;37.33;20.83;;;8.20;99.90;;;;;;10447283;28;20221;-72
2022/11/30 06:49:12;;;;;;;36.37;19.53;;;8.20;99.90;;;;;;10399595;28;1061187;-71
2022/11/30 06:54:15;;;;;;;43.03;26.13;;;8.20;99.90;;;;;;10438361;28;20439;-77
2022/11/30 06:59:17;;;;;;;36.23;19.73;;;8.20;99.90;;;;;;10446241;28;20231;-74
2022/11/30 07:04:17;;;;;;;35.37;18.93;;;8.30;99.90;;;;;;10435877;28;20238;-76
2022/11/30 07:09:18;;;;;;;38.47;20.30;;;8.30;99.90;;;;;;10427029;28;20613;-77
2022/11/30 07:14:18;;;;;;;31.63;17.30;;;8.30;99.90;;;;;;10423996;28;20561;-75
2022/11/30 07:19:19;;;;;;;35.30;19.30;;;8.40;99.90;;;;;;10447289;28;20218;-75
2022/11/30 07:29:39;;;;;;;32.50;18.90;;;8.30;99.90;;;;;;10442646;28;20302;-75
2022/11/30 07:34:39;;;;;;;33.63;19.07;;;8.30;99.90;;;;;;10460816;28;20209;-71
2022/11/30 07:39:40;;;;;;;31.13;18.80;;;8.40;99.90;;;;;;10447313;28;20218;-80
2022/11/30 07:44:41;;;;;;;34.10;19.83;;;8.40;99.90;;;;;;10443107;28;20219;-78
2022/11/30 07:49:41;;;;;;;34.70;20.63;;;8.40;99.90;;;;;;10436044;28;20777;-77
2022/11/30 07:54:42;;;;;;;33.17;20.00;;;8.40;99.90;;;;;;10426835;28;20247;-75
2022/11/30 07:59:42;;;;;;;35.13;19.87;;;8.40;99.90;;;;;;10440809;28;20301;-77
2022/11/30 08:04:43;;;;;;;33.13;18.90;;;8.40;99.90;;;;;;10436828;28;20218;-78
2022/11/30 08:09:44;;;;;;;34.97;19.73;;;8.50;99.90;;;;;;10428832;28;20698;-79
2022/11/30 08:14:44;;;;;;;33.30;19.10;;;8.50;99.90;;;;;;10436790;28;20711;-78
2022/11/30 08:19:45;;;;;;;34.80;20.30;;;8.60;99.90;;;;;;10436474;28;20219;-78
2022/11/30 08:24:45;;;;;;;29.40;18.97;;;8.70;99.90;;;;;;10411807;28;20302;-79
2022/11/30 08:29:46;;;;;;;31.70;18.17;;;8.70;99.90;;;;;;10436731;28;20268;-79
2022/11/30 08:34:47;;;;;;;27.50;18.40;;;8.80;99.90;;;;;;10432726;28;20750;-79
2022/11/30 08:39:47;;;;;;;30.17;17.27;;;8.90;99.90;;;;;;10425769;28;20222;-77
2022/11/30 08:44:49;;;;;;;26.20;17.10;;;9.00;99.90;;;;;;10433503;28;20276;-77
2022/11/30 08:49:50;;;;;;;28.80;18.07;;;9.00;99.90;;;;;;10412800;28;20667;-79
2022/11/30 08:54:50;;;;;;;24.07;16.43;;;9.10;99.90;;;;;;10425902;28;20210;-79
2022/11/30 08:59:51;;;;;;;19.90;14.43;;;9.30;99.90;;;;;;10438059;28;20233;-79
2022/11/30 09:04:52;;;;;;;23.20;16.23;;;9.50;99.90;;;;;;10425721;28;20892;-75
2022/11/30 09:09:53;;;;;;;20.93;15.43;;;9.50;99.90;;;;;;10437856;28;20249;-70
2022/11/30 09:14:53;;;;;;;18.47;14.57;;;9.50;99.90;;;;;;10436122;28;20702;-72
2022/11/30 09:19:54;;;;;;;19.97;14.03;;;9.30;99.90;;;;;;10444897;28;20911;-71
2022/11/30 09:24:54;;;;;;;19.90;13.73;;;9.30;99.90;;;;;;10441382;28;20230;-68
2022/11/30 09:29:55;;;;;;;17.43;12.80;;;9.20;99.90;;;;;;10418836;28;20222;-70
2022/11/30 09:34:57;;;;;;;17.40;12.63;;;9.10;99.90;;;;;;10448467;28;20222;-71
2022/11/30 09:39:58;;;;;;;16.40;12.33;;;9.00;99.90;;;;;;10444613;28;20304;-71
2022/11/30 09:45:27;;;;;;;16.40;13.27;;;8.80;99.90;;;;;;10439932;28;20276;-71
2022/11/30 09:50:34;;;;;;;15.70;12.60;;;8.70;99.90;;;;;;10441809;28;20706;-70
2022/11/30 09:55:42;;;;;;;13.23;11.67;;;8.60;99.90;;;;;;10426368;28;20250;-71
2022/11/30 10:00:43;;;;;;;14.70;12.33;;;8.60;99.90;;;;;;10439530;28;20230;-71
2022/11/30 10:06:07;;;;;;;19.30;13.97;;;8.70;99.90;;;;;;10444119;28;20458;-71
2022/11/30 10:11:34;;;;;;;18.70;13.47;;;8.80;99.90;;;;;;10436660;28;20265;-72
2022/11/30 10:16:56;;;;;;;17.47;13.77;;;8.80;99.90;;;;;;10405484;28;20231;-71
2022/11/30 10:22:21;;;;;;;17.40;14.63;;;8.90;99.90;;;;;;10428908;28;20258;-72
2022/11/30 10:27:42;;;;;;;17.50;13.67;;;9.00;99.90;;;;;;10456472;28;20359;-72
2022/11/30 10:32:46;;;;;;;17.73;14.83;;;8.80;99.90;;;;;;10423167;28;20258;-70
2022/11/30 10:37:49;;;;;;;19.10;14.63;;;8.60;99.90;;;;;;10444873;28;20723;-72
2022/11/30 10:42:57;;;;;;;16.60;14.30;;;8.60;99.90;;;;;;10437693;28;20225;-71
2022/11/30 10:48:19;;;;;;;16.17;13.73;;;8.70;99.90;;;;;;10439517;28;20226;-71
2022/11/30 10:53:20;;;;;;;15.03;12.70;;;8.90;99.90;;;;;;10443997;28;20319;-72
2022/11/30 10:58:32;;;;;;;18.33;14.10;;;9.00;99.90;;;;;;10437470;28;20226;-71
2022/11/30 11:03:35;;;;;;;13.93;12.00;;;9.00;99.90;;;;;;10437710;28;20217;-72
2022/11/30 11:08:38;;;;;;;15.37;12.07;;;9.20;99.90;;;;;;10440911;28;20231;-72
2022/11/30 11:13:41;;;;;;;18.10;14.87;;;9.30;99.90;;;;;;10427037;28;20274;-72
2022/11/30 11:18:53;;;;;;;13.30;11.90;;;9.50;99.90;;;;;;10430046;28;20219;-73
2022/11/30 11:23:55;;;;;;;16.27;13.73;;;9.70;99.90;;;;;;10429371;28;20247;-72
2022/11/30 11:29:00;;;;;;;17.50;14.03;;;9.80;99.90;;;;;;10431036;28;20219;-72
2022/11/30 11:34:02;;;;;;;18.00;13.77;;;9.80;99.90;;;;;;10436226;28;20219;-72
2022/11/30 11:39:22;;;;;;;14.17;12.60;;;9.80;99.90;;;;;;10442093;28;20709;-72
2022/11/30 11:44:26;;;;;;;15.53;13.17;;;9.70;99.90;;;;;;10435532;28;20224;-72
2022/11/30 11:49:31;;;;;;;16.20;13.60;;;9.70;99.90;;;;;;10432409;28;20280;-72
2022/11/30 11:54:48;;;;;;;15.53;13.20;;;9.80;99.90;;;;;;10441278;28;20247;-72
2022/11/30 11:59:55;;;;;;;15.73;13.77;;;9.80;99.90;;;;;;10423952;28;20309;-72
2022/11/30 12:05:01;;;;;;;16.60;13.30;;;9.90;99.90;;;;;;10419646;28;20214;-72
2022/11/30 12:10:31;;;;;;;14.00;11.97;;;10.00;99.90;;;;;;10421773;28;20223;-72
2022/11/30 12:15:42;;;;;;;12.63;11.27;;;10.30;99.90;;;;;;10439317;28;20230;-72
2022/11/30 12:21:09;;;;;;;12.70;11.07;;;10.40;99.90;;;;;;10438740;28;20210;-71
2022/11/30 12:26:20;;;;;;;17.00;12.87;;;10.60;99.90;;;;;;10432389;28;20222;-70
2022/11/30 12:31:28;;;;;;;15.93;11.47;;;10.70;99.90;;;;;;10441096;28;20252;-71
2022/11/30 12:36:48;;;;;;;11.83;10.53;;;10.80;99.90;;;;;;10440219;28;20223;-72
2022/11/30 12:42:06;;;;;;;12.83;9.73;;;10.80;99.90;;;;;;10442050;28;20207;-70
2022/11/30 12:47:31;;;;;;;12.17;8.97;;;10.80;99.90;;;;;;10438858;28;20465;-70
2022/11/30 12:52:42;;;;;;;10.27;8.23;;;10.60;99.90;;;;;;10440624;28;20295;-72
2022/11/30 12:57:54;;;;;;;9.70;8.70;;;10.60;99.90;;;;;;10442392;28;20227;-73
2022/11/30 13:03:32;;;;;;;11.00;7.87;;;10.60;99.90;;;;;;10441605;28;20260;-75
2022/11/30 13:08:42;;;;;;;7.83;6.93;;;10.40;99.90;;;;;;10440269;28;20221;-72
2022/11/30 13:13:53;;;;;;;10.00;7.20;;;10.30;99.90;;;;;;10450559;28;20289;-71
2022/11/30 13:19:02;;;;;;;7.80;7.00;;;10.10;99.90;;;;;;10448464;28;20219;-69
2022/11/30 13:24:22;;;;;;;7.50;6.63;;;10.00;99.90;;;;;;10449488;28;20751;-71
2022/11/30 13:29:47;;;;;;;8.13;7.17;;;9.80;99.90;;;;;;10451462;28;20686;-70
2022/11/30 13:34:47;;;;;;;8.33;7.10;;;9.70;99.90;;;;;;10448208;28;20209;-70
2022/11/30 13:39:59;;;;;;;10.27;7.60;;;9.70;99.90;;;;;;10451157;28;20257;-70
2022/11/30 13:45:35;;;;;;;8.73;7.83;;;9.70;99.90;;;;;;10447117;28;20277;-70
2022/11/30 13:50:40;;;;;;;9.20;8.07;;;9.70;99.90;;;;;;10449120;28;20254;-70
2022/11/30 13:55:40;;;;;;;11.20;8.37;;;9.70;99.90;;;;;;10448367;28;20245;-69
2022/11/30 14:00:47;;;;;;;11.83;9.50;;;9.70;99.90;;;;;;10447930;28;20219;-71
2022/11/30 14:06:25;;;;;;;9.57;8.10;;;9.70;99.90;;;;;;10448852;28;20223;-71
2022/11/30 14:11:34;;;;;;;9.97;8.93;;;9.60;99.90;;;;;;10447506;28;20249;-68
2022/11/30 14:16:35;;;;;;;9.47;8.53;;;9.60;99.90;;;;;;10450069;28;20280;-69
2022/11/30 14:21:36;;;;;;;13.57;8.83;;;9.50;99.90;;;;;;10448109;28;20248;-69
2022/11/30 14:26:43;;;;;;;10.23;8.70;;;9.50;99.90;;;;;;10447559;28;20233;-72
2022/11/30 14:31:47;;;;;;;9.43;8.23;;;9.40;99.90;;;;;;10442583;28;20271;-69
2022/11/30 14:36:51;;;;;;;9.27;8.17;;;9.40;99.90;;;;;;10445278;28;20226;-69
2022/11/30 14:41:52;;;;;;;12.03;8.77;;;9.30;99.90;;;;;;10448500;28;20218;-70
2022/11/30 14:46:53;;;;;;;9.90;8.80;;;9.20;99.90;;;;;;10448757;28;20227;-70
2022/11/30 14:52:02;;;;;;;10.27;9.17;;;9.20;99.90;;;;;;10448092;28;20886;-71
2022/11/30 14:57:37;;;;;;;11.50;9.43;;;9.10;99.90;;;;;;10446369;28;20241;-71
2022/11/30 15:02:46;;;;;;;12.03;9.50;;;9.10;99.90;;;;;;10447240;28;20760;-72
2022/11/30 15:07:47;;;;;;;11.73;9.17;;;9.10;99.90;;;;;;10448996;28;20591;-73
2022/11/30 15:12:48;;;;;;;12.13;10.30;;;9.10;99.90;;;;;;10447645;28;20235;-72
2022/11/30 15:17:57;;;;;;;11.53;9.77;;;9.10;99.90;;;;;;10447431;28;20245;-71
2022/11/30 15:22:59;;;;;;;13.63;10.60;;;9.00;99.90;;;;;;10445773;28;20227;-74
2022/11/30 15:28:00;;;;;;;11.97;10.73;;;9.00;99.90;;;;;;10446395;28;20223;-74
2022/11/30 15:33:01;;;;;;;12.63;10.93;;;9.00;99.90;;;;;;10445802;28;20384;-73
2022/11/30 15:38:07;;;;;;;13.67;10.77;;;9.00;99.90;;;;;;10447760;28;20214;-74
2022/11/30 15:43:23;;;;;;;13.83;11.30;;;8.90;99.90;;;;;;10445580;28;20215;-74
2022/11/30 15:48:37;;;;;;;12.53;11.23;;;9.00;99.90;;;;;;10445442;28;20704;-73
2022/11/30 15:53:49;;;;;;;15.77;11.00;;;8.90;99.90;;;;;;10445538;28;20227;-73
2022/11/30 15:59:20;;;;;;;14.43;10.90;;;8.90;99.90;;;;;;10445973;28;20220;-71
2022/11/30 16:04:21;;;;;;;14.40;11.47;;;8.80;99.90;;;;;;10444352;28;20225;-70
2022/11/30 16:09:32;;;;;;;14.33;11.43;;;8.80;99.90;;;;;;10445501;28;20595;-71
2022/11/30 16:14:32;;;;;;;13.53;10.90;;;8.80;99.90;;;;;;10445840;28;20261;-72
2022/11/30 16:19:33;;;;;;;12.50;11.00;;;8.80;99.90;;;;;;10445800;28;20278;-72
2022/11/30 16:24:34;;;;;;;17.33;11.50;;;8.80;99.90;;;;;;10445109;28;20241;-72
2022/11/30 16:29:34;;;;;;;12.97;10.90;;;8.80;99.90;;;;;;10445678;28;20644;-71
2022/11/30 16:34:35;;;;;;;13.47;11.07;;;8.80;99.90;;;;;;10441944;28;20223;-69
2022/11/30 16:39:35;;;;;;;16.10;10.67;;;8.80;99.90;;;;;;10445392;28;20246;-74
2022/11/30 16:44:36;;;;;;;13.60;11.93;;;8.80;99.90;;;;;;10448586;28;20210;-74
2022/11/30 16:49:36;;;;;;;13.40;11.00;;;8.70;99.90;;;;;;10449525;28;20223;-74
2022/11/30 16:54:37;;;;;;;13.47;11.13;;;8.70;99.90;;;;;;10452964;28;20595;-76
2022/11/30 16:59:39;;;;;;;11.53;9.93;;;8.70;99.90;;;;;;10453036;28;20233;-74
2022/11/30 17:05:06;;;;;;;;;;;;;;;;;;;;;
2022/11/30 17:10:08;;;;;;;13.33;10.60;;;8.60;99.90;;;;;;10431398;28;20272;-75
2022/11/30 17:15:22;;;;;;;17.13;11.90;;;8.50;99.90;;;;;;10452886;28;20181;-79
2022/11/30 17:20:24;;;;;;;14.17;10.87;;;8.50;99.90;;;;;;10452604;28;20302;-76
2022/11/30 17:25:24;;;;;;;13.77;10.50;;;8.50;99.90;;;;;;10452084;28;20228;-73
2022/11/30 17:30:26;;;;;;;17.50;11.57;;;8.50;99.90;;;;;;10452685;28;20287;-76
2022/11/30 17:35:29;;;;;;;15.33;10.67;;;8.50;99.90;;;;;;10445279;28;20440;-78
2022/11/30 17:40:31;;;;;;;15.33;11.63;;;8.60;99.90;;;;;;10485739;28;20753;-77
2022/11/30 17:45:31;;;;;;;15.30;12.27;;;8.50;99.90;;;;;;10450267;28;20216;-76
2022/11/30 17:50:38;;;;;;;17.70;11.70;;;8.50;99.90;;;;;;10439922;28;20229;-76
2022/11/30 17:55:38;;;;;;;16.27;11.77;;;8.50;99.90;;;;;;10449720;28;20274;-76
2022/11/30 18:00:39;;;;;;;15.37;12.47;;;8.40;99.90;;;;;;10453559;28;20243;-78
2022/11/30 18:05:41;;;;;;;17.23;13.27;;;8.50;99.90;;;;;;10453555;28;20216;-78
2022/11/30 18:10:44;;;;;;;17.00;13.30;;;8.40;99.90;;;;;;10452041;28;20229;-78
2022/11/30 18:15:45;;;;;;;17.93;13.23;;;8.30;99.90;;;;;;10454281;28;20300;-77
2022/11/30 18:20:45;;;;;;;16.03;12.27;;;8.20;99.90;;;;;;10451407;28;20830;-77
2022/11/30 18:25:48;;;;;;;14.57;10.57;;;8.20;99.90;;;;;;10451447;28;20219;-77
2022/11/30 18:30:52;;;;;;;17.00;10.53;;;8.10;99.90;;;;;;10451189;28;20615;-77
2022/11/30 18:35:57;;;;;;;15.57;11.03;;;8.10;99.90;;;;;;10450888;28;20221;-77
2022/11/30 18:40:58;;;;;;;14.37;10.67;;;8.10;99.90;;;;;;10449190;28;20220;-74
2022/11/30 18:46:07;;;;;;;12.77;10.50;;;8.10;99.90;;;;;;10449290;28;20211;-72
2022/11/30 18:51:13;;;;;;;11.97;9.17;;;8.10;99.90;;;;;;10449059;28;20230;-73
2022/11/30 18:56:17;;;;;;;11.80;9.20;;;8.10;99.90;;;;;;10448844;28;20222;-74
2022/11/30 19:01:19;;;;;;;13.43;10.53;;;8.10;99.90;;;;;;10449009;28;20228;-74
2022/11/30 19:06:20;;;;;;;12.77;9.73;;;8.10;99.90;;;;;;10447132;28;20354;-74
2022/11/30 19:11:21;;;;;;;13.10;9.50;;;8.10;99.90;;;;;;10448345;28;20338;-75
2022/11/30 19:16:24;;;;;;;13.37;9.87;;;8.10;99.90;;;;;;10447300;28;20226;-74
2022/11/30 19:21:25;;;;;;;11.20;9.07;;;8.20;99.90;;;;;;10448537;28;20220;-73
2022/11/30 19:26:27;;;;;;;12.27;9.63;;;8.10;99.90;;;;;;10448494;28;20246;-73
2022/11/30 19:31:28;;;;;;;14.13;10.20;;;8.20;99.90;;;;;;10447911;28;20257;-73
2022/11/30 19:36:30;;;;;;;12.17;9.30;;;8.20;99.90;;;;;;10447108;28;20309;-73
2022/11/30 19:41:30;;;;;;;12.80;10.50;;;8.20;99.90;;;;;;10447079;28;20220;-70
2022/11/30 19:46:33;;;;;;;10.40;8.60;;;8.20;99.90;;;;;;10444293;28;20223;-70
2022/11/30 19:51:33;;;;;;;13.23;9.63;;;8.20;99.90;;;;;;10445277;28;20230;-70
2022/11/30 19:56:34;;;;;;;11.63;9.13;;;8.20;99.90;;;;;;10446166;28;20697;-70
2022/11/30 20:01:35;;;;;;;11.90;9.23;;;8.20;99.90;;;;;;10446543;28;20221;-71
2022/11/30 20:06:37;;;;;;;10.80;9.20;;;8.20;99.90;;;;;;10445522;28;20226;-72
2022/11/30 20:11:39;;;;;;;12.93;9.47;;;8.20;99.90;;;;;;10444641;28;20309;-70
2022/11/30 20:16:39;;;;;;;13.53;9.67;;;8.20;99.90;;;;;;10445496;28;20227;-71
2022/11/30 20:21:40;;;;;;;11.53;9.30;;;8.30;99.90;;;;;;10444369;28;20312;-71
2022/11/30 20:26:42;;;;;;;10.50;8.17;;;8.30;99.90;;;;;;10444239;28;20220;-72
2022/11/30 20:31:45;;;;;;;8.90;7.60;;;8.30;99.90;;;;;;10442785;28;20225;-71
2022/11/30 20:36:46;;;;;;;10.73;9.27;;;8.20;99.90;;;;;;10444685;28;20300;-72
2022/11/30 20:41:47;;;;;;;9.40;8.07;;;8.10;99.90;;;;;;10445208;28;20309;-72
2022/11/30 20:46:48;;;;;;;11.33;9.37;;;8.10;99.90;;;;;;10443852;28;20593;-71
2022/11/30 20:51:48;;;;;;;12.33;10.53;;;8.00;99.90;;;;;;10442943;28;20234;-72
2022/11/30 20:56:49;;;;;;;13.77;10.37;;;8.00;99.90;;;;;;10444587;28;20224;-73
2022/11/30 21:01:49;;;;;;;14.37;10.63;;;8.00;99.90;;;;;;10444231;28;20217;-73
2022/11/30 21:06:51;;;;;;;13.93;9.87;;;8.10;99.90;;;;;;10446548;28;20778;-73
2022/11/30 21:11:52;;;;;;;12.83;10.57;;;7.90;99.90;;;;;;10434702;28;20239;-71
2022/11/30 21:16:52;;;;;;;11.60;9.60;;;7.80;99.90;;;;;;10413984;28;20255;-72
2022/11/30 21:21:58;;;;;;;10.77;8.87;;;7.80;99.90;;;;;;10428278;28;20336;-71
2022/11/30 21:26:58;;;;;;;12.93;10.00;;;7.80;99.90;;;;;;10421577;28;20216;-72
2022/11/30 21:31:59;;;;;;;12.63;8.63;;;7.80;99.90;;;;;;10435709;28;20230;-77
2022/11/30 21:37:00;;;;;;;12.10;9.13;;;7.80;99.90;;;;;;10435720;28;20589;-71
2022/11/30 21:42:01;;;;;;;10.97;9.00;;;7.70;99.90;;;;;;10437189;28;20225;-69
2022/11/30 21:47:01;;;;;;;12.70;9.80;;;7.70;99.90;;;;;;10435514;28;20234;-68
2022/11/30 21:52:02;;;;;;;14.23;11.43;;;7.60;99.90;;;;;;10422280;28;20228;-68
2022/11/30 21:57:02;;;;;;;13.97;10.47;;;7.70;99.90;;;;;;10433942;28;20259;-72
2022/11/30 22:02:03;;;;;;;15.97;11.63;;;7.60;99.90;;;;;;10438541;28;20560;-73
2022/11/30 22:07:04;;;;;;;16.27;11.57;;;7.70;99.90;;;;;;10467117;28;20223;-74
2022/11/30 22:12:05;;;;;;;16.43;11.57;;;7.70;99.90;;;;;;10425177;28;21037;-76
2022/11/30 22:17:06;;;;;;;16.47;11.57;;;7.70;99.90;;;;;;10437661;28;20232;-79
2022/11/30 22:22:06;;;;;;;14.00;11.00;;;7.60;99.90;;;;;;10429733;28;20221;-78
2022/11/30 22:27:07;;;;;;;15.03;10.93;;;7.50;99.90;;;;;;10432303;28;20216;-78
2022/11/30 22:32:07;;;;;;;15.00;11.70;;;7.50;99.90;;;;;;10433594;28;20239;-79
2022/11/30 22:37:08;;;;;;;19.50;13.67;;;7.40;99.90;;;;;;10427688;28;20699;-75
2022/11/30 22:42:08;;;;;;;19.87;13.37;;;7.20;99.90;;;;;;10436470;28;20317;-75
2022/11/30 22:47:12;;;;;;;19.90;14.47;;;7.10;99.90;;;;;;10435359;28;20236;-75
2022/11/30 22:52:12;;;;;;;20.43;14.40;;;7.10;99.90;;;;;;10435304;28;20751;-76
2022/11/30 22:57:13;;;;;;;21.87;13.80;;;7.00;99.90;;;;;;10433303;28;20224;-75
2022/11/30 23:02:14;;;;;;;21.40;15.20;;;6.90;99.90;;;;;;10431790;28;20897;-75
2022/11/30 23:07:14;;;;;;;19.00;13.60;;;6.70;99.90;;;;;;10439415;28;20220;-74
2022/11/30 23:12:15;;;;;;;23.13;14.17;;;6.60;99.90;;;;;;10430047;28;20254;-74
2022/11/30 23:17:15;;;;;;;20.83;13.93;;;6.60;99.90;;;;;;10427003;28;20314;-73
2022/11/30 23:22:16;;;;;;;21.47;13.30;;;6.50;99.90;;;;;;10430703;28;20683;-73
2022/11/30 23:27:16;;;;;;;22.40;14.93;;;6.40;99.90;;;;;;10426900;28;20726;-73
2022/11/30 23:32:17;;;;;;;22.30;14.07;;;6.50;99.90;;;;;;10437754;28;20228;-75
2022/11/30 23:37:17;;;;;;;23.10;14.70;;;6.50;99.90;;;;;;10440136;28;20620;-75
2022/11/30 23:42:21;;;;;;;24.23;14.73;;;6.50;99.90;;;;;;10431053;28;20217;-75
2022/11/30 23:47:21;;;;;;;23.60;14.97;;;6.40;99.90;;;;;;10429856;28;20227;-76
2022/11/30 23:52:22;;;;;;;22.17;14.97;;;6.40;99.90;;;;;;10428944;28;20707;-76
2022/11/30 23:57:22;;;;;;;21.63;14.67;;;6.30;99.90;;;;;;10429128;28;20233;-76
